3AK0 weather

Wolfe Point Heliport
Ketchikan, Alaska, United States

Public forecast

Using degrees Fahrenheit for public forecast. Weather courtesy of forecast.io.

METAR (pilot weather report)

Closest report is Ketchikan International Airport, 0.5 nm (0.8 km) SSW. Retrieved 2019/07/21 00:53 UTC (29 minutes ago):

PAKT 210053Z 13008KT 10SM SCT065 19/10 A3014

TAF (pilot weather forecast)

Forecast is more than 12 hours old.

Closest forecast is Ketchikan International Airport, 0.5 nm (0.8 km) SSW. Retrieved 2019/07/20 00:36 UTC (1 day ago):

TAF PAKT 202334Z 2100/2124 14010KT P6SM SCT040 FM210900 33005KT P6SM SKC AMD LTD TO CLD VIS AND WIND 2106/2115